Aviation Digital Data Service (ADDS)

Output produced by METARs form (0904 UTC 24 January 2017)
found at http://www.aviationweather.gov/adds/metars/
 
KIPT 240854Z AUTO 27008KT 8SM -SN FEW010 SCT016 OVC031 01/00 A2954 RMK AO2 SLP007 P0004 60019 T00110000 58002
KIPT 240840Z AUTO 28008KT 7SM -SN SCT010 BKN016 OVC029 01/00 A2955 RMK AO2 P0004 T00110000
KIPT 240824Z AUTO 29006KT 4SM -SN BR BKN006 BKN012 OVC018 01/00 A2955 RMK AO2 P0003 T00110000
KIPT 240805Z AUTO 29007KT 2SM -SN BR BKN008 OVC014 01/00 A2954 RMK AO2 P0002 T00060000
KIPT 240754Z AUTO 28008KT 1 3/4SM -SN BR SCT008 OVC012 01/00 A2955 RMK AO2 SLP008 P0009 T00060000
KIPT 240713Z AUTO 27009KT 1 1/2SM -SN BR OVC009 01/00 A2955 RMK AO2 P0003 T00060000
KIPT 240654Z AUTO 26008KT 2 1/2SM -SN BR BKN008 OVC013 01/M01 A2955 RMK AO2 SLP009 P0006 T00061006
KIPT 240651Z AUTO 28007KT 2SM -SN BR BKN009 OVC013 01/M01 A2955 RMK AO2 P0006
KIPT 240644Z AUTO 27007KT 1 3/4SM -SN BR BKN009 OVC013 01/00 A2955 RMK AO2 P0005 T00060000
KIPT 240637Z AUTO 29005KT 2SM -SN BR BKN009 OVC016 01/00 A2955 RMK AO2 P0004 T00060000
KIPT 240629Z AUTO 27005KT 3SM -SN BR BKN008 OVC016 01/00 A2955 RMK AO2 P0003 T00110000
KIPT 240608Z AUTO 29007KT 3SM -SN BR SCT008 BKN014 OVC022 01/00 A2956 RMK AO2 P0001 T00110000
KIPT 240554Z AUTO 27006KT 4SM -SN BR FEW008 BKN024 OVC029 01/00 A2956 RMK AO2 SLP013 P0003 60034 T00110000 10022 20006 56016
KIPT 240543Z AUTO 30005KT 6SM -SN BR SCT008 BKN014 OVC033 01/00 A2956 RMK AO2 P0002 T00110000
KIPT 240528Z AUTO 27006KT 5SM -SN BR FEW010 BKN016 OVC033 01/00 A2957 RMK AO2 P0002 T00110000
KIPT 240454Z AUTO 27006KT 6SM -SN BR OVC010 01/00 A2958 RMK AO2 RAE40SNB40 CIG 009V014 SLP021 P0002 T00110000 400940006
KIPT 240431Z AUTO 28005KT 9SM -RA BKN010 BKN016 OVC033 01/00 A2960 RMK AO2 P0002 T00110000
KIPT 240403Z AUTO 26004KT 7SM -RA SCT006 OVC028 01/00 A2961 RMK AO2 P0000 T00110000
KIPT 240354Z AUTO 28003KT 5SM -RA BR BKN006 OVC028 01/00 A2961 RMK AO2 SLP029 P0009 T00110000
KIPT 240330Z AUTO 26003KT 3SM -RA BR OVC006 01/00 A2962 RMK AO2 P0006 T00060000
KIPT 240319Z 26003KT 2 1/2SM RA BR BKN006 OVC018 01/00 A2962 RMK AO2 P0005 T00060000
KIPT 240307Z 25004KT 2 1/2SM RA BR SCT006 OVC020 01/00 A2962 RMK AO2 P0003 T00060000
KIPT 240254Z 26003KT 2SM RA BR BKN020 OVC025 01/00 A2962 RMK AO2 SLP035 P0005 60020 T00110000 58010
KIPT 240154Z 26005KT 9SM -RA OVC024 02/01 A2963 RMK AO2 SLP038 P0009 T00170006
KIPT 240054Z 26005KT 5SM RA BR OVC025 02/00 A2965 RMK AO2 RAB04 SLP043 P0006 T00170000
KIPT 232354Z 25005KT 10SM OVC028 02/01 A2966 RMK AO2 RAE44 SLP045 P0014 60034 T00220006 10056 20022 50013
KIPT 232254Z 00000KT 3SM +RA BR OVC027 03/01 A2967 RMK AO2 SLP052 P0014 T00280011
KIPT 232154Z 11003KT 5SM RA FEW038 OVC048 03/01 A2964 RMK AO2 SLP040 P0006 T00330006
KIPT 232054Z 06008KT 020V080 10SM -RA OVC050 05/M01 A2962 RMK AO2 RAB13 SLP031 P0000 60000 T00501011 55005
KIPT 231954Z 06006KT 10SM OVC050 06/00 A2961 RMK AO2 SLP028 T00560000
KIPT 231854Z 05006KT 10SM FEW026 SCT033 OVC050 06/01 A2962 RMK AO2 RAE1758B14E38 SLP031 P0000 T00560006
KIPT 231754Z 07009KT 10SM -RA BKN030 OVC060 06/01 A2963 RMK AO2 SLP037 P0000 60017 T00560011 10067 20050 56027
KIPT 231751Z 06008KT 10SM -RA BKN030 OVC060 06/02 A2963 RMK AO2 P0000
KIPT 231654Z 07009KT 10SM -RA OVC029 06/02 A2967 RMK AO2 SLP049 P0006 T00560022
KIPT 231554Z 08009KT 7SM RA OVC025 06/03 A2971 RMK AO2 SLP064 P0005 T00560028
KIPT 231454Z 10005KT 10SM -RA BKN021 OVC027 05/03 A2973 RMK AO2 SLP070 P0004 60006 T00500028 50007
KIPT 231354Z 10010KT 10SM -RA OVC025 06/02 A2974 RMK AO2 RAB26 SLP072 P0002 T00560022
KIPT 231254Z 10011KT 10SM OVC026 07/02 A2970 RMK AO2 SLP061 T00670017
KIPT 231154Z 10016KT 10SM OVC021 07/02 A2971 RMK AO2 SLP062 T00670022 10094 20067 58001
KIPT 231054Z AUTO 09016G23KT 10SM OVC019 07/03 A2971 RMK AO2 SLP064 T00720028
KIPT 230954Z AUTO 09011G21KT 10SM OVC020 08/04 A2971 RMK AO2 SLP063 T00830044
KIPT 230854Z AUTO 09006KT 10SM OVC019 09/06 A2971 RMK AO2 SLP063 T00890056 53002
KIPT 230754Z AUTO 12007KT 10SM OVC020 09/06 A2971 RMK AO2 SLP062 T00940061
KIPT 230654Z AUTO 10007KT 10SM OVC017 09/07 A2970 RMK AO2 SLP060 T00940067
KIPT 230554Z AUTO 08003KT 7SM OVC015 08/06 A2970 RMK AO2 SLP061 T00780061 10078 20067 53002
KIPT 230503Z AUTO 00000KT 4SM BR OVC016 07/06 A2970 RMK AO2 T00670061
KIPT 230454Z AUTO 00000KT 4SM BR OVC014 07/06 A2969 RMK AO2 SLP057 T00670061 400780044
KIPT 230354Z AUTO 00000KT 4SM BR BKN012 OVC019 07/06 A2970 RMK AO2 SLP059 T00670056
KIPT 230317Z 00000KT 4SM BR OVC014 07/06 A2969 RMK AO2 T00670056
KIPT 230254Z 00000KT 3SM BR SCT004 OVC019 07/06 A2970 RMK AO2 SLP059 T00720061 51002
KIPT 230216Z 00000KT 1 1/2SM BR BKN003 OVC016 07/06 A2970 RMK AO2 T00670056
KIPT 230207Z 00000KT 2 1/2SM BR BKN003 OVC015 07/06 A2970 RMK AO2 T00670056
KIPT 230154Z 00000KT 3SM BR FEW005 OVC015 07/06 A2970 RMK AO2 SLP059 T00720061
KIPT 230133Z 00000KT 3SM BR SCT005 OVC014 07/06 A2970 RMK AO2 T00720061
KIPT 230123Z 00000KT 2 1/2SM BR BKN005 OVC014 07/06 A2969 RMK AO2 T00720061
KIPT 230112Z 00000KT 3SM BR BKN005 OVC012 07/06 A2969 RMK AO2 T00720061
KIPT 230054Z 00000KT 3SM BR OVC004 07/06 A2970 RMK AO2 SLP058 T00720056
KIPT 230049Z 00000KT 3SM BR BKN005 OVC017 07/06 A2969 RMK AO2
KIPT 230041Z 00000KT 3SM BR BKN004 OVC015 07/06 A2969 RMK AO2 T00720056
KIPT 222354Z 00000KT 2SM BR BKN004 OVC012 07/06 A2968 RMK AO2 SLP053 T00720061 10078 20067 55001
KIPT 222336Z 00000KT 1SM BR OVC003 07/06 A2968 RMK AO2 T00670061
KIPT 222326Z 00000KT 3/4SM BR OVC003 07/06 A2968 RMK AO2 T00670061
KIPT 222313Z 00000KT 1 1/4SM BR OVC002 07/06 A2967 RMK AO2 T00670061
KIPT 222254Z 00000KT 2 1/2SM BR OVC003 07/06 A2967 RMK AO2 SLP048 T00670061
KIPT 222154Z 10005KT 5SM BR OVC004 07/06 A2967 RMK AO2 SLP051 T00720061
KIPT 222117Z 08007KT 5SM BR OVC004 08/06 A2969 RMK AO2 T00780061